sensor_id;sensor_type;location;lat;lon;timestamp;pressure;altitude;pressure_sealevel;temperature;humidity
59487;BME280;45298;54.918;73.504;2024-01-11T00:02:07;98227.72;;;-23.88;82.08
59487;BME280;45298;54.918;73.504;2024-01-11T00:04:36;98235.94;;;-23.91;81.95
59487;BME280;45298;54.918;73.504;2024-01-11T00:07:05;98238.38;;;-23.92;82.22
59487;BME280;45298;54.918;73.504;2024-01-11T00:09:39;98238.44;;;-23.91;81.78
59487;BME280;45298;54.918;73.504;2024-01-11T00:12:09;98235.63;;;-23.98;81.57
59487;BME280;45298;54.918;73.504;2024-01-11T00:14:38;98184.13;;;-24.29;81.56
59487;BME280;45298;54.918;73.504;2024-01-11T00:17:07;98241.44;;;-23.99;81.96
59487;BME280;45298;54.918;73.504;2024-01-11T00:19:35;98262.53;;;-23.94;81.67
59487;BME280;45298;54.918;73.504;2024-01-11T00:22:04;98257.94;;;-24.05;81.62
59487;BME280;45298;54.918;73.504;2024-01-11T00:24:34;98250.19;;;-24.09;81.54
59487;BME280;45298;54.918;73.504;2024-01-11T00:27:06;98263.63;;;-24.07;81.29
59487;BME280;45298;54.918;73.504;2024-01-11T00:29:36;98260.88;;;-24.13;81.71
59487;BME280;45298;54.918;73.504;2024-01-11T00:32:05;98272.81;;;-24.08;81.43
59487;BME280;45298;54.918;73.504;2024-01-11T00:34:34;98281.13;;;-24.09;81.42
59487;BME280;45298;54.918;73.504;2024-01-11T00:37:04;98267.38;;;-24.17;81.51
59487;BME280;45298;54.918;73.504;2024-01-11T00:39:33;98302.13;;;-24.07;81.45
59487;BME280;45298;54.918;73.504;2024-01-11T00:42:02;98309.69;;;-24.05;81.62
59487;BME280;45298;54.918;73.504;2024-01-11T00:44:32;98303.69;;;-24.09;81.47
59487;BME280;45298;54.918;73.504;2024-01-11T00:47:01;98299.16;;;-24.16;81.56
59487;BME280;45298;54.918;73.504;2024-01-11T00:49:30;98298.19;;;-24.20;81.57
59487;BME280;45298;54.918;73.504;2024-01-11T00:51:59;98331.84;;;-24.14;81.63
59487;BME280;45298;54.918;73.504;2024-01-11T00:54:28;98329.81;;;-24.22;81.31
59487;BME280;45298;54.918;73.504;2024-01-11T00:56:57;98345.06;;;-24.17;80.97
59487;BME280;45298;54.918;73.504;2024-01-11T00:59:26;98347.34;;;-24.22;81.21
59487;BME280;45298;54.918;73.504;2024-01-11T01:01:55;98352.44;;;-24.20;81.28
59487;BME280;45298;54.918;73.504;2024-01-11T01:04:24;98349.50;;;-24.29;81.43
59487;BME280;45298;54.918;73.504;2024-01-11T01:06:53;98366.47;;;-24.24;81.40
59487;BME280;45298;54.918;73.504;2024-01-11T01:09:21;98349.91;;;-24.38;80.96
59487;BME280;45298;54.918;73.504;2024-01-11T01:11:50;98368.44;;;-24.35;80.89
59487;BME280;45298;54.918;73.504;2024-01-11T01:14:19;98386.16;;;-24.31;80.99
59487;BME280;45298;54.918;73.504;2024-01-11T01:16:48;98369.34;;;-24.34;80.83
59487;BME280;45298;54.918;73.504;2024-01-11T01:19:16;98359.84;;;-24.40;81.23
59487;BME280;45298;54.918;73.504;2024-01-11T01:21:48;98373.56;;;-24.50;81.37
59487;BME280;45298;54.918;73.504;2024-01-11T01:24:17;98374.34;;;-24.51;80.87
59487;BME280;45298;54.918;73.504;2024-01-11T01:26:45;98381.75;;;-24.54;80.93
59487;BME280;45298;54.918;73.504;2024-01-11T01:29:15;98389.16;;;-24.55;80.91
59487;BME280;45298;54.918;73.504;2024-01-11T01:31:44;98403.50;;;-24.53;80.96
59487;BME280;45298;54.918;73.504;2024-01-11T01:34:14;98405.75;;;-24.57;80.96
59487;BME280;45298;54.918;73.504;2024-01-11T01:36:43;98418.94;;;-24.61;80.77
59487;BME280;45298;54.918;73.504;2024-01-11T01:39:12;98391.78;;;-24.87;81.05
59487;BME280;45298;54.918;73.504;2024-01-11T01:41:41;98438.00;;;-24.63;81.06
59487;BME280;45298;54.918;73.504;2024-01-11T01:44:10;98433.50;;;-24.71;80.66
59487;BME280;45298;54.918;73.504;2024-01-11T01:46:39;98449.38;;;-24.70;80.70
59487;BME280;45298;54.918;73.504;2024-01-11T01:49:10;98446.63;;;-24.75;80.54
59487;BME280;45298;54.918;73.504;2024-01-11T01:51:40;98475.28;;;-24.70;80.96
59487;BME280;45298;54.918;73.504;2024-01-11T01:54:09;98456.19;;;-24.84;80.98
59487;BME280;45298;54.918;73.504;2024-01-11T01:56:38;98474.13;;;-24.76;80.39
59487;BME280;45298;54.918;73.504;2024-01-11T01:59:08;98450.94;;;-24.89;80.79
59487;BME280;45298;54.918;73.504;2024-01-11T02:01:39;98484.69;;;-24.82;80.54
59487;BME280;45298;54.918;73.504;2024-01-11T02:04:08;98466.66;;;-24.91;80.91
59487;BME280;45298;54.918;73.504;2024-01-11T02:06:38;98467.81;;;-25.01;80.62
59487;BME280;45298;54.918;73.504;2024-01-11T02:09:09;98484.25;;;-24.90;80.44
59487;BME280;45298;54.918;73.504;2024-01-11T02:11:41;98520.50;;;-24.83;80.69
59487;BME280;45298;54.918;73.504;2024-01-11T02:14:10;98521.78;;;-24.90;80.35
59487;BME280;45298;54.918;73.504;2024-01-11T02:16:39;98505.44;;;-25.00;80.40
59487;BME280;45298;54.918;73.504;2024-01-11T02:19:10;98458.84;;;-25.29;80.53
59487;BME280;45298;54.918;73.504;2024-01-11T02:21:42;98529.53;;;-25.02;80.41
59487;BME280;45298;54.918;73.504;2024-01-11T02:24:13;98518.16;;;-25.12;80.35
59487;BME280;45298;54.918;73.504;2024-01-11T02:29:28;98545.00;;;-25.09;80.27
59487;BME280;45298;54.918;73.504;2024-01-11T02:32:00;98536.97;;;-25.18;80.25
59487;BME280;45298;54.918;73.504;2024-01-11T02:34:30;98551.84;;;-25.21;80.23
59487;BME280;45298;54.918;73.504;2024-01-11T02:36:59;98557.09;;;-25.17;80.11
59487;BME280;45298;54.918;73.504;2024-01-11T02:39:28;98567.47;;;-25.26;80.22
59487;BME280;45298;54.918;73.504;2024-01-11T02:41:57;98572.47;;;-25.26;80.43
59487;BME280;45298;54.918;73.504;2024-01-11T02:44:26;98559.34;;;-25.36;80.70
59487;BME280;45298;54.918;73.504;2024-01-11T02:46:55;98589.25;;;-25.23;80.48
59487;BME280;45298;54.918;73.504;2024-01-11T02:49:24;98580.38;;;-25.33;80.05
59487;BME280;45298;54.918;73.504;2024-01-11T02:51:53;98600.56;;;-25.30;80.36
59487;BME280;45298;54.918;73.504;2024-01-11T02:54:22;98589.19;;;-25.39;80.18
59487;BME280;45298;54.918;73.504;2024-01-11T02:56:51;98599.38;;;-25.36;80.73
59487;BME280;45298;54.918;73.504;2024-01-11T02:59:20;98598.34;;;-25.40;79.87
59487;BME280;45298;54.918;73.504;2024-01-11T03:01:49;98588.81;;;-25.47;80.48
59487;BME280;45298;54.918;73.504;2024-01-11T03:04:18;98605.44;;;-25.48;79.64
59487;BME280;45298;54.918;73.504;2024-01-11T03:06:47;98611.31;;;-25.47;80.60
59487;BME280;45298;54.918;73.504;2024-01-11T03:09:16;98600.75;;;-25.57;80.03
59487;BME280;45298;54.918;73.504;2024-01-11T03:11:45;98612.50;;;-25.56;80.03
59487;BME280;45298;54.918;73.504;2024-01-11T03:14:14;98621.13;;;-25.50;80.29
59487;BME280;45298;54.918;73.504;2024-01-11T03:16:42;98612.84;;;-25.64;80.27
59487;BME280;45298;54.918;73.504;2024-01-11T03:19:11;98637.25;;;-25.60;79.68
59487;BME280;45298;54.918;73.504;2024-01-11T03:21:45;98635.94;;;-25.53;80.25
59487;BME280;45298;54.918;73.504;2024-01-11T03:24:14;98608.16;;;-25.73;79.63
59487;BME280;45298;54.918;73.504;2024-01-11T03:26:43;98638.13;;;-25.60;79.76
59487;BME280;45298;54.918;73.504;2024-01-11T03:29:12;98607.28;;;-25.89;79.82
59487;BME280;45298;54.918;73.504;2024-01-11T03:31:41;98651.03;;;-25.67;79.91
59487;BME280;45298;54.918;73.504;2024-01-11T03:34:13;98610.47;;;-25.91;79.87
59487;BME280;45298;54.918;73.504;2024-01-11T03:36:43;98658.44;;;-25.68;79.77
59487;BME280;45298;54.918;73.504;2024-01-11T03:39:12;98652.31;;;-25.74;80.16
59487;BME280;45298;54.918;73.504;2024-01-11T03:41:47;98689.06;;;-25.58;80.04
59487;BME280;45298;54.918;73.504;2024-01-11T03:44:15;98678.72;;;-25.64;80.31
59487;BME280;45298;54.918;73.504;2024-01-11T03:46:44;98686.56;;;-25.58;79.95
59487;BME280;45298;54.918;73.504;2024-01-11T03:49:13;98629.34;;;-25.96;79.85
59487;BME280;45298;54.918;73.504;2024-01-11T03:51:43;98679.88;;;-25.72;80.15
59487;BME280;45298;54.918;73.504;2024-01-11T03:54:13;98680.84;;;-25.70;79.59
59487;BME280;45298;54.918;73.504;2024-01-11T03:56:44;98683.34;;;-25.70;79.47
59487;BME280;45298;54.918;73.504;2024-01-11T03:59:13;98690.34;;;-25.64;79.40
59487;BME280;45298;54.918;73.504;2024-01-11T04:01:43;98711.66;;;-25.56;79.63
59487;BME280;45298;54.918;73.504;2024-01-11T04:04:11;98680.06;;;-25.69;80.13
59487;BME280;45298;54.918;73.504;2024-01-11T04:06:41;98649.78;;;-25.89;79.82
59487;BME280;45298;54.918;73.504;2024-01-11T04:09:10;98691.47;;;-25.59;79.99
59487;BME280;45298;54.918;73.504;2024-01-11T04:11:39;98687.75;;;-25.66;79.52
59487;BME280;45298;54.918;73.504;2024-01-11T04:14:09;98709.44;;;-25.51;79.77
59487;BME280;45298;54.918;73.504;2024-01-11T04:16:42;98706.41;;;-25.61;79.71
59487;BME280;45298;54.918;73.504;2024-01-11T04:19:11;98710.78;;;-25.57;79.60
59487;BME280;45298;54.918;73.504;2024-01-11T04:21:40;98703.22;;;-25.58;79.74
59487;BME280;45298;54.918;73.504;2024-01-11T04:24:10;98711.75;;;-25.54;79.46
59487;BME280;45298;54.918;73.504;2024-01-11T04:26:39;98720.97;;;-25.53;79.95
59487;BME280;45298;54.918;73.504;2024-01-11T04:29:09;98687.13;;;-25.77;79.23
59487;BME280;45298;54.918;73.504;2024-01-11T04:31:38;98761.97;;;-25.36;79.43
59487;BME280;45298;54.918;73.504;2024-01-11T04:34:07;98701.63;;;-25.71;79.33
59487;BME280;45298;54.918;73.504;2024-01-11T04:36:38;98706.53;;;-25.73;79.60
59487;BME280;45298;54.918;73.504;2024-01-11T04:39:10;98767.72;;;-25.37;79.20
59487;BME280;45298;54.918;73.504;2024-01-11T04:41:39;98755.78;;;-25.43;79.33
59487;BME280;45298;54.918;73.504;2024-01-11T04:44:10;98758.34;;;-25.42;79.28
59487;BME280;45298;54.918;73.504;2024-01-11T04:46:38;98752.38;;;-25.44;79.38
59487;BME280;45298;54.918;73.504;2024-01-11T04:49:08;98777.03;;;-25.35;79.39
59487;BME280;45298;54.918;73.504;2024-01-11T04:51:37;98758.56;;;-25.37;79.26
59487;BME280;45298;54.918;73.504;2024-01-11T04:54:06;98762.34;;;-25.30;79.39
59487;BME280;45298;54.918;73.504;2024-01-11T04:56:35;98777.94;;;-25.19;79.46
59487;BME280;45298;54.918;73.504;2024-01-11T04:59:04;98777.94;;;-25.19;79.51
59487;BME280;45298;54.918;73.504;2024-01-11T05:01:33;98762.78;;;-25.22;79.69
59487;BME280;45298;54.918;73.504;2024-01-11T05:04:01;98775.91;;;-25.12;79.75
59487;BME280;45298;54.918;73.504;2024-01-11T05:06:30;98779.44;;;-25.08;79.70
59487;BME280;45298;54.918;73.504;2024-01-11T05:08:59;98792.31;;;-25.02;79.17
59487;BME280;45298;54.918;73.504;2024-01-11T05:11:28;98796.38;;;-25.04;79.10
59487;BME280;45298;54.918;73.504;2024-01-11T05:13:57;98785.41;;;-25.06;79.13
59487;BME280;45298;54.918;73.504;2024-01-11T05:16:27;98776.16;;;-25.07;79.17
59487;BME280;45298;54.918;73.504;2024-01-11T05:18:58;98799.41;;;-24.95;78.99
59487;BME280;45298;54.918;73.504;2024-01-11T05:21:27;98798.81;;;-24.90;79.22
59487;BME280;45298;54.918;73.504;2024-01-11T05:23:57;98748.72;;;-25.20;79.19
59487;BME280;45298;54.918;73.504;2024-01-11T05:26:27;98808.41;;;-24.83;79.49
59487;BME280;45298;54.918;73.504;2024-01-11T05:28:56;98803.22;;;-24.86;79.24
59487;BME280;45298;54.918;73.504;2024-01-11T05:31:26;98806.50;;;-24.87;78.88
59487;BME280;45298;54.918;73.504;2024-01-11T05:33:58;98806.34;;;-24.75;79.08
59487;BME280;45298;54.918;73.504;2024-01-11T05:36:28;98796.31;;;-24.90;78.85
59487;BME280;45298;54.918;73.504;2024-01-11T05:38:57;98804.13;;;-24.69;78.84
59487;BME280;45298;54.918;73.504;2024-01-11T05:41:26;98789.06;;;-24.71;79.22
59487;BME280;45298;54.918;73.504;2024-01-11T05:43:54;98803.53;;;-24.65;78.94
59487;BME280;45298;54.918;73.504;2024-01-11T05:46:24;98813.91;;;-24.59;79.26
59487;BME280;45298;54.918;73.504;2024-01-11T05:48:55;98787.66;;;-24.66;78.94
59487;BME280;45298;54.918;73.504;2024-01-11T05:51:24;98743.56;;;-24.93;78.73
59487;BME280;45298;54.918;73.504;2024-01-11T05:53:53;98784.38;;;-24.65;78.76
59487;BME280;45298;54.918;73.504;2024-01-11T05:56:22;98791.25;;;-24.60;78.61
59487;BME280;45298;54.918;73.504;2024-01-11T05:58:52;98746.59;;;-24.84;78.49
59487;BME280;45298;54.918;73.504;2024-01-11T06:01:21;98787.56;;;-24.52;78.82
59487;BME280;45298;54.918;73.504;2024-01-11T06:03:51;98799.22;;;-24.38;78.62
59487;BME280;45298;54.918;73.504;2024-01-11T06:06:20;98800.34;;;-24.32;79.11
59487;BME280;45298;54.918;73.504;2024-01-11T06:08:49;98788.16;;;-24.26;78.69
59487;BME280;45298;54.918;73.504;2024-01-11T06:11:17;98802.75;;;-24.19;78.74
59487;BME280;45298;54.918;73.504;2024-01-11T06:13:46;98790.22;;;-24.19;78.47
59487;BME280;45298;54.918;73.504;2024-01-11T06:16:16;98782.63;;;-24.21;78.38
59487;BME280;45298;54.918;73.504;2024-01-11T06:18:46;98799.97;;;-24.09;77.71
59487;BME280;45298;54.918;73.504;2024-01-11T06:21:15;98807.31;;;-23.97;78.24
59487;BME280;45298;54.918;73.504;2024-01-11T06:23:45;98798.91;;;-23.97;78.40
59487;BME280;45298;54.918;73.504;2024-01-11T06:26:14;98808.53;;;-23.89;77.90
59487;BME280;45298;54.918;73.504;2024-01-11T06:28:44;98797.03;;;-23.85;77.41
59487;BME280;45298;54.918;73.504;2024-01-11T06:31:14;98806.78;;;-23.75;77.65
59487;BME280;45298;54.918;73.504;2024-01-11T06:33:43;98746.88;;;-24.01;77.14
59487;BME280;45298;54.918;73.504;2024-01-11T06:36:15;98805.25;;;-23.56;77.09
59487;BME280;45298;54.918;73.504;2024-01-11T06:38:44;98814.03;;;-23.48;77.30
59487;BME280;45298;54.918;73.504;2024-01-11T06:41:14;98801.41;;;-23.49;77.34
59487;BME280;45298;54.918;73.504;2024-01-11T06:43:44;98801.81;;;-23.42;77.32
59487;BME280;45298;54.918;73.504;2024-01-11T06:46:19;98811.88;;;-23.25;77.08
59487;BME280;45298;54.918;73.504;2024-01-11T06:48:49;98800.13;;;-23.26;77.18
59487;BME280;45298;54.918;73.504;2024-01-11T06:51:22;98762.31;;;-23.46;77.51
59487;BME280;45298;54.918;73.504;2024-01-11T06:53:51;98806.22;;;-23.21;77.04
59487;BME280;45298;54.918;73.504;2024-01-11T06:56:21;98827.59;;;-23.11;77.14
59487;BME280;45298;54.918;73.504;2024-01-11T06:58:50;98818.59;;;-23.07;77.24
59487;BME280;45298;54.918;73.504;2024-01-11T07:01:19;98827.47;;;-22.98;76.75
59487;BME280;45298;54.918;73.504;2024-01-11T07:03:49;98848.56;;;-22.94;77.15
59487;BME280;45298;54.918;73.504;2024-01-11T07:06:18;98847.84;;;-22.91;76.88
59487;BME280;45298;54.918;73.504;2024-01-11T07:08:47;98830.66;;;-23.00;77.33
59487;BME280;45298;54.918;73.504;2024-01-11T07:11:16;98823.47;;;-23.10;76.69
59487;BME280;45298;54.918;73.504;2024-01-11T07:13:46;98842.28;;;-23.02;76.52
59487;BME280;45298;54.918;73.504;2024-01-11T07:16:15;98837.34;;;-23.01;76.74
59487;BME280;45298;54.918;73.504;2024-01-11T07:18:44;98825.56;;;-23.02;76.99
59487;BME280;45298;54.918;73.504;2024-01-11T07:21:21;98834.22;;;-22.97;76.83
59487;BME280;45298;54.918;73.504;2024-01-11T07:23:51;98847.53;;;-22.81;76.71
59487;BME280;45298;54.918;73.504;2024-01-11T07:26:20;98801.88;;;-23.07;76.81
59487;BME280;45298;54.918;73.504;2024-01-11T07:28:50;98850.59;;;-22.70;76.87
59487;BME280;45298;54.918;73.504;2024-01-11T07:31:19;98865.59;;;-22.55;76.83
59487;BME280;45298;54.918;73.504;2024-01-11T07:33:48;98859.22;;;-22.48;76.55
59487;BME280;45298;54.918;73.504;2024-01-11T07:36:17;98840.53;;;-22.54;76.79
59487;BME280;45298;54.918;73.504;2024-01-11T07:38:46;98840.69;;;-22.51;77.04
59487;BME280;45298;54.918;73.504;2024-01-11T07:41:15;98841.53;;;-22.50;76.37
59487;BME280;45298;54.918;73.504;2024-01-11T07:43:44;98837.38;;;-22.49;76.40
59487;BME280;45298;54.918;73.504;2024-01-11T07:46:21;98842.81;;;-22.40;76.85
59487;BME280;45298;54.918;73.504;2024-01-11T07:49:03;98851.03;;;-22.26;76.73
59487;BME280;45298;54.918;73.504;2024-01-11T07:51:33;98854.56;;;-22.23;76.17
59487;BME280;45298;54.918;73.504;2024-01-11T07:54:05;98859.69;;;-22.21;76.63
59487;BME280;45298;54.918;73.504;2024-01-11T07:56:34;98856.94;;;-22.26;75.90
59487;BME280;45298;54.918;73.504;2024-01-11T07:59:03;98841.56;;;-22.32;75.95
59487;BME280;45298;54.918;73.504;2024-01-11T08:01:33;98849.78;;;-22.35;76.08
59487;BME280;45298;54.918;73.504;2024-01-11T08:04:03;98837.78;;;-22.40;75.89
59487;BME280;45298;54.918;73.504;2024-01-11T08:06:32;98857.06;;;-22.41;75.91
59487;BME280;45298;54.918;73.504;2024-01-11T08:09:02;98840.38;;;-22.57;76.27
59487;BME280;45298;54.918;73.504;2024-01-11T08:11:33;98856.59;;;-22.50;76.52
59487;BME280;45298;54.918;73.504;2024-01-11T08:14:07;98804.53;;;-22.87;76.41
59487;BME280;45298;54.918;73.504;2024-01-11T08:16:36;98865.34;;;-22.60;76.11
59487;BME280;45298;54.918;73.504;2024-01-11T08:19:05;98862.75;;;-22.61;76.20
59487;BME280;45298;54.918;73.504;2024-01-11T08:21:34;98875.16;;;-22.64;76.39
59487;BME280;45298;54.918;73.504;2024-01-11T08:24:04;98883.72;;;-22.61;76.70
59487;BME280;45298;54.918;73.504;2024-01-11T08:26:37;98881.84;;;-22.65;76.44
59487;BME280;45298;54.918;73.504;2024-01-11T08:29:07;98879.97;;;-22.69;75.95
59487;BME280;45298;54.918;73.504;2024-01-11T08:31:37;98858.94;;;-22.88;76.22
59487;BME280;45298;54.918;73.504;2024-01-11T08:34:07;98875.00;;;-22.84;76.24
59487;BME280;45298;54.918;73.504;2024-01-11T08:36:36;98880.88;;;-22.84;76.49
59487;BME280;45298;54.918;73.504;2024-01-11T08:39:07;98872.19;;;-22.90;76.46
59487;BME280;45298;54.918;73.504;2024-01-11T08:41:36;98872.66;;;-22.98;76.14
59487;BME280;45298;54.918;73.504;2024-01-11T08:44:09;98862.84;;;-23.09;76.02
59487;BME280;45298;54.918;73.504;2024-01-11T08:46:40;98861.81;;;-23.13;76.08
59487;BME280;45298;54.918;73.504;2024-01-11T08:49:09;98867.88;;;-23.09;76.53
59487;BME280;45298;54.918;73.504;2024-01-11T08:51:38;98894.88;;;-23.05;76.40
59487;BME280;45298;54.918;73.504;2024-01-11T08:54:07;98873.34;;;-23.17;76.38
59487;BME280;45298;54.918;73.504;2024-01-11T08:56:37;98891.63;;;-23.19;76.26
59487;BME280;45298;54.918;73.504;2024-01-11T08:59:08;98816.38;;;-23.67;76.04
59487;BME280;45298;54.918;73.504;2024-01-11T09:01:38;98900.53;;;-23.26;76.02
59487;BME280;45298;54.918;73.504;2024-01-11T09:04:16;98861.22;;;-23.57;75.52
59487;BME280;45298;54.918;73.504;2024-01-11T09:06:46;98907.38;;;-23.38;76.08
59487;BME280;45298;54.918;73.504;2024-01-11T09:09:15;98914.59;;;-23.45;76.26
59487;BME280;45298;54.918;73.504;2024-01-11T09:11:45;98945.63;;;-23.43;76.28
59487;BME280;45298;54.918;73.504;2024-01-11T09:14:14;98925.00;;;-23.53;76.08
59487;BME280;45298;54.918;73.504;2024-01-11T09:16:43;98938.81;;;-23.45;76.31
59487;BME280;45298;54.918;73.504;2024-01-11T09:19:13;98922.19;;;-23.58;76.39
59487;BME280;45298;54.918;73.504;2024-01-11T09:21:43;98930.00;;;-23.53;76.49
59487;BME280;45298;54.918;73.504;2024-01-11T09:24:11;98929.84;;;-23.56;76.52
59487;BME280;45298;54.918;73.504;2024-01-11T09:26:40;98928.09;;;-23.58;77.16
59487;BME280;45298;54.918;73.504;2024-01-11T09:29:09;98929.66;;;-23.60;76.57
59487;BME280;45298;54.918;73.504;2024-01-11T09:31:38;98949.13;;;-23.55;76.72
59487;BME280;45298;54.918;73.504;2024-01-11T09:34:07;98935.03;;;-23.68;76.79
59487;BME280;45298;54.918;73.504;2024-01-11T09:36:36;98939.69;;;-23.75;76.63
59487;BME280;45298;54.918;73.504;2024-01-11T09:39:07;98942.81;;;-23.79;76.58
59487;BME280;45298;54.918;73.504;2024-01-11T09:41:38;98941.59;;;-23.85;76.65
59487;BME280;45298;54.918;73.504;2024-01-11T09:44:10;98958.38;;;-23.84;76.83
59487;BME280;45298;54.918;73.504;2024-01-11T09:46:39;98930.13;;;-24.12;76.67
59487;BME280;45298;54.918;73.504;2024-01-11T09:49:08;98936.97;;;-24.09;76.47
59487;BME280;45298;54.918;73.504;2024-01-11T09:51:39;98929.00;;;-24.17;76.50
59487;BME280;45298;54.918;73.504;2024-01-11T09:54:12;98954.44;;;-24.11;76.82
59487;BME280;45298;54.918;73.504;2024-01-11T09:56:43;98957.88;;;-24.24;76.49
59487;BME280;45298;54.918;73.504;2024-01-11T09:59:20;98964.16;;;-24.30;76.58
59487;BME280;45298;54.918;73.504;2024-01-11T10:01:51;98944.84;;;-24.46;76.57
59487;BME280;45298;54.918;73.504;2024-01-11T10:04:21;98976.69;;;-24.30;76.83
59487;BME280;45298;54.918;73.504;2024-01-11T10:06:50;98972.88;;;-24.39;76.51
59487;BME280;45298;54.918;73.504;2024-01-11T10:09:20;98978.50;;;-24.43;76.71
59487;BME280;45298;54.918;73.504;2024-01-11T10:11:49;98982.38;;;-24.48;76.48
59487;BME280;45298;54.918;73.504;2024-01-11T10:14:20;98970.81;;;-24.59;76.56
59487;BME280;45298;54.918;73.504;2024-01-11T10:16:49;98993.56;;;-24.56;77.10
59487;BME280;45298;54.918;73.504;2024-01-11T10:19:18;98999.25;;;-24.59;76.68
59487;BME280;45298;54.918;73.504;2024-01-11T10:21:51;98985.09;;;-24.73;76.60
59487;BME280;45298;54.918;73.504;2024-01-11T10:24:22;98985.75;;;-24.76;76.92
59487;BME280;45298;54.918;73.504;2024-01-11T10:26:57;98994.03;;;-24.77;76.82
59487;BME280;45298;54.918;73.504;2024-01-11T10:29:33;99012.16;;;-24.81;76.85
59487;BME280;45298;54.918;73.504;2024-01-11T10:32:04;99016.78;;;-24.87;76.76
59487;BME280;45298;54.918;73.504;2024-01-11T10:34:34;98998.34;;;-25.03;77.23
59487;BME280;45298;54.918;73.504;2024-01-11T10:37:03;99008.72;;;-25.10;76.83
59487;BME280;45298;54.918;73.504;2024-01-11T10:39:35;99029.91;;;-25.05;76.74
59487;BME280;45298;54.918;73.504;2024-01-11T10:42:05;99032.00;;;-25.11;77.12
59487;BME280;45298;54.918;73.504;2024-01-11T10:44:35;99028.16;;;-25.19;77.13
59487;BME280;45298;54.918;73.504;2024-01-11T10:47:05;98986.31;;;-25.49;77.29
59487;BME280;45298;54.918;73.504;2024-01-11T10:49:39;99052.81;;;-25.26;77.21
59487;BME280;45298;54.918;73.504;2024-01-11T10:52:11;99048.38;;;-25.30;77.29
59487;BME280;45298;54.918;73.504;2024-01-11T10:54:41;99028.84;;;-25.49;77.17
59487;BME280;45298;54.918;73.504;2024-01-11T10:57:12;99042.16;;;-25.50;76.33
59487;BME280;45298;54.918;73.504;2024-01-11T10:59:41;99022.19;;;-25.75;76.93
59487;BME280;45298;54.918;73.504;2024-01-11T11:02:12;99048.63;;;-25.65;76.78
59487;BME280;45298;54.918;73.504;2024-01-11T11:04:45;99070.88;;;-25.57;77.21
59487;BME280;45298;54.918;73.504;2024-01-11T11:07:14;99067.22;;;-25.62;76.93
59487;BME280;45298;54.918;73.504;2024-01-11T11:09:44;99032.38;;;-25.85;76.88
59487;BME280;45298;54.918;73.504;2024-01-11T11:12:14;99063.72;;;-25.77;76.56
59487;BME280;45298;54.918;73.504;2024-01-11T11:14:46;99069.47;;;-25.78;76.79
59487;BME280;45298;54.918;73.504;2024-01-11T11:17:18;99065.72;;;-25.85;77.32
59487;BME280;45298;54.918;73.504;2024-01-11T11:19:47;99057.50;;;-25.96;77.10
59487;BME280;45298;54.918;73.504;2024-01-11T11:22:16;99100.06;;;-25.82;76.71
59487;BME280;45298;54.918;73.504;2024-01-11T11:24:47;99092.91;;;-25.90;76.94
59487;BME280;45298;54.918;73.504;2024-01-11T11:27:16;99088.06;;;-26.00;76.85
59487;BME280;45298;54.918;73.504;2024-01-11T11:29:49;99114.47;;;-26.04;76.67
59487;BME280;45298;54.918;73.504;2024-01-11T11:32:18;99095.25;;;-26.05;77.36
59487;BME280;45298;54.918;73.504;2024-01-11T11:35:04;99088.78;;;-26.14;77.21
59487;BME280;45298;54.918;73.504;2024-01-11T11:37:33;99094.09;;;-26.10;76.75
59487;BME280;45298;54.918;73.504;2024-01-11T11:40:09;99089.47;;;-26.17;76.95
59487;BME280;45298;54.918;73.504;2024-01-11T11:42:41;99082.22;;;-26.26;76.82
59487;BME280;45298;54.918;73.504;2024-01-11T11:45:11;99095.69;;;-26.24;77.15
59487;BME280;45298;54.918;73.504;2024-01-11T11:47:40;99085.94;;;-26.33;76.61
59487;BME280;45298;54.918;73.504;2024-01-11T11:50:11;99117.75;;;-26.30;76.62
59487;BME280;45298;54.918;73.504;2024-01-11T11:52:40;99136.75;;;-26.32;76.66
59487;BME280;45298;54.918;73.504;2024-01-11T11:55:12;99156.50;;;-26.35;76.59
59487;BME280;45298;54.918;73.504;2024-01-11T11:57:43;99134.94;;;-26.46;76.89
59487;BME280;45298;54.918;73.504;2024-01-11T12:00:13;99136.47;;;-26.49;77.02
59487;BME280;45298;54.918;73.504;2024-01-11T12:02:44;99149.06;;;-26.47;76.79
59487;BME280;45298;54.918;73.504;2024-01-11T12:05:16;99136.69;;;-26.57;76.35
59487;BME280;45298;54.918;73.504;2024-01-11T12:07:47;99158.16;;;-26.48;76.69
59487;BME280;45298;54.918;73.504;2024-01-11T12:10:17;99100.50;;;-26.88;76.68
59487;BME280;45298;54.918;73.504;2024-01-11T12:12:46;99142.97;;;-26.63;76.37
59487;BME280;45298;54.918;73.504;2024-01-11T12:15:17;99168.16;;;-26.59;76.66
59487;BME280;45298;54.918;73.504;2024-01-11T12:17:46;99161.56;;;-26.59;76.63
59487;BME280;45298;54.918;73.504;2024-01-11T12:20:16;99161.66;;;-26.69;76.37
59487;BME280;45298;54.918;73.504;2024-01-11T12:22:45;99161.22;;;-26.75;76.36
59487;BME280;45298;54.918;73.504;2024-01-11T12:25:14;99147.16;;;-26.87;77.05
59487;BME280;45298;54.918;73.504;2024-01-11T12:27:44;99164.84;;;-26.84;76.59
59487;BME280;45298;54.918;73.504;2024-01-11T12:30:16;99181.97;;;-26.76;76.65
59487;BME280;45298;54.918;73.504;2024-01-11T12:32:46;99161.69;;;-26.93;76.91
59487;BME280;45298;54.918;73.504;2024-01-11T12:35:18;99191.84;;;-26.90;76.76
59487;BME280;45298;54.918;73.504;2024-01-11T12:37:55;99175.13;;;-26.91;76.49
59487;BME280;45298;54.918;73.504;2024-01-11T12:40:27;99185.34;;;-26.88;76.96
59487;BME280;45298;54.918;73.504;2024-01-11T12:42:59;99162.78;;;-27.01;76.42
59487;BME280;45298;54.918;73.504;2024-01-11T12:45:28;99172.31;;;-27.07;76.53
59487;BME280;45298;54.918;73.504;2024-01-11T12:47:59;99180.22;;;-27.13;76.39
59487;BME280;45298;54.918;73.504;2024-01-11T12:50:30;99163.59;;;-27.25;76.13
59487;BME280;45298;54.918;73.504;2024-01-11T12:53:09;99203.13;;;-27.07;76.20
59487;BME280;45298;54.918;73.504;2024-01-11T12:55:40;99199.75;;;-27.07;76.31
59487;BME280;45298;54.918;73.504;2024-01-11T12:58:24;99177.91;;;-27.34;76.50